Time;durP1;ratioP1;P1;durP2;ratioP2;P2;SDS_P1;SDS_P2;PMS_P1;PMS_P2;Temp;Humidity;BMP_temperature;BMP_pressure;BME280_temperature;BME280_humidity;BME280_pressure;Samples;Min_cycle;Max_cycle;Signal;HPM_P1;HPM_P2
2023/02/02 00:01:50;;;;;;;15.40;2.80;;;9.60;99.90;;;;;;6215297;23;20151;-78
2023/02/02 00:04:21;;;;;;;17.80;2.90;;;9.60;99.90;;;;;;6213548;23;20209;-77
2023/02/02 00:06:47;;;;;;;11.43;2.83;;;9.70;99.90;;;;;;6213318;23;20171;-78
2023/02/02 00:09:17;;;;;;;23.20;3.63;;;9.70;99.90;;;;;;6215267;23;20220;-77
2023/02/02 00:11:44;;;;;;;20.13;3.47;;;9.70;99.90;;;;;;6214844;23;20573;-77
2023/02/02 00:14:10;;;;;;;20.70;4.00;;;9.70;99.90;;;;;;6213351;23;20151;-77
2023/02/02 00:16:38;;;;;;;16.63;3.27;;;9.70;99.90;;;;;;6214862;23;20199;-77
2023/02/02 00:19:12;;;;;;;13.27;2.97;;;9.70;99.90;;;;;;6214713;23;20140;-77
2023/02/02 00:21:38;;;;;;;13.17;2.77;;;9.50;99.90;;;;;;6215169;23;20133;-77
2023/02/02 00:24:07;;;;;;;17.80;3.07;;;9.50;99.90;;;;;;6215020;23;20595;-77
2023/02/02 00:26:34;;;;;;;13.30;3.63;;;9.70;99.90;;;;;;6213469;23;20225;-77
2023/02/02 00:29:00;;;;;;;20.27;4.17;;;9.80;99.90;;;;;;6215129;23;20135;-77
2023/02/02 00:31:25;;;;;;;11.70;2.87;;;9.80;99.90;;;;;;6215029;23;20152;-77
2023/02/02 00:33:52;;;;;;;17.33;3.33;;;9.80;99.90;;;;;;6213484;23;20486;-78
2023/02/02 00:36:19;;;;;;;11.90;2.80;;;9.70;99.90;;;;;;6214479;23;20156;-77
2023/02/02 00:38:46;;;;;;;10.50;2.63;;;9.50;99.90;;;;;;6215325;23;20199;-77
2023/02/02 00:41:12;;;;;;;19.70;3.87;;;9.40;99.90;;;;;;6214957;23;20135;-77
2023/02/02 00:43:37;;;;;;;13.10;2.80;;;9.50;99.90;;;;;;6217049;23;20132;-77
2023/02/02 00:46:03;;;;;;;19.20;2.77;;;9.50;99.90;;;;;;6215231;23;20431;-77
2023/02/02 00:48:29;;;;;;;16.53;2.93;;;9.60;99.90;;;;;;6215126;23;20310;-77
2023/02/02 00:50:54;;;;;;;18.87;3.20;;;9.60;99.90;;;;;;6216635;23;20129;-76
2023/02/02 00:53:20;;;;;;;16.50;3.07;;;9.50;99.90;;;;;;6216637;23;20155;-76
2023/02/02 00:55:46;;;;;;;14.90;3.37;;;9.50;99.90;;;;;;6216193;23;20151;-76
2023/02/02 00:58:11;;;;;;;15.93;3.43;;;9.50;99.90;;;;;;6216433;23;20136;-77
2023/02/02 01:00:37;;;;;;;16.00;3.53;;;9.50;99.90;;;;;;6216195;23;20217;-76
2023/02/02 01:03:03;;;;;;;15.93;3.60;;;9.60;99.90;;;;;;6216526;23;20140;-76
2023/02/02 01:05:33;;;;;;;12.73;2.80;;;9.40;99.90;;;;;;6216503;23;20454;-77
2023/02/02 01:07:59;;;;;;;17.53;2.83;;;9.50;99.90;;;;;;6216640;23;20173;-76
2023/02/02 01:10:25;;;;;;;15.80;3.63;;;9.60;99.90;;;;;;6216637;23;20521;-76
2023/02/02 01:12:52;;;;;;;20.03;3.63;;;9.50;99.90;;;;;;6217297;23;20582;-76
2023/02/02 01:15:18;;;;;;;16.57;3.07;;;9.60;99.90;;;;;;6215046;23;20140;-76
2023/02/02 01:17:44;;;;;;;12.03;3.10;;;9.60;99.90;;;;;;6216307;23;20431;-76
2023/02/02 01:20:16;;;;;;;14.63;3.80;;;9.60;99.90;;;;;;6217137;23;20162;-76
2023/02/02 01:22:41;;;;;;;21.60;3.30;;;9.60;99.90;;;;;;6216715;23;20143;-76
2023/02/02 01:25:07;;;;;;;14.67;3.03;;;9.60;99.90;;;;;;6215159;23;20148;-76
2023/02/02 01:27:33;;;;;;;23.60;3.43;;;9.60;99.90;;;;;;6216733;23;20179;-76
2023/02/02 01:29:58;;;;;;;19.37;3.70;;;9.60;99.90;;;;;;6216872;23;20128;-77
2023/02/02 01:32:24;;;;;;;11.93;2.33;;;9.50;99.90;;;;;;6215114;23;20485;-77
2023/02/02 01:34:49;;;;;;;10.00;2.73;;;9.50;99.90;;;;;;6216193;23;20466;-77
2023/02/02 01:37:15;;;;;;;17.27;3.40;;;9.40;99.90;;;;;;6214720;23;20144;-77
2023/02/02 01:39:41;;;;;;;17.10;3.00;;;9.50;99.90;;;;;;6217099;23;20162;-77
2023/02/02 01:42:14;;;;;;;15.50;2.63;;;9.60;99.90;;;;;;6216595;23;20175;-77
2023/02/02 01:45:11;;;;;;;18.03;3.63;;;9.50;99.90;;;;;;6216785;23;20148;-77
2023/02/02 01:47:41;;;;;;;16.37;3.00;;;9.70;99.90;;;;;;6216637;23;20594;-77
2023/02/02 01:50:10;;;;;;;14.33;3.23;;;9.60;99.90;;;;;;6214915;23;20152;-76
2023/02/02 01:52:39;;;;;;;18.87;3.07;;;9.50;99.90;;;;;;6215973;23;20132;-77
2023/02/02 01:55:11;;;;;;;16.33;3.30;;;9.70;99.90;;;;;;6216446;23;20450;-77
2023/02/02 01:57:52;;;;;;;18.80;3.67;;;9.60;99.90;;;;;;6216298;23;20140;-77
2023/02/02 02:00:24;;;;;;;13.70;2.83;;;9.50;99.90;;;;;;6214533;23;20148;-76
2023/02/02 02:02:52;;;;;;;14.50;2.73;;;9.50;99.90;;;;;;6215967;23;20577;-76
2023/02/02 02:05:24;;;;;;;20.03;3.70;;;9.40;99.90;;;;;;6214982;23;20167;-76
2023/02/02 02:07:52;;;;;;;20.23;2.80;;;9.50;99.90;;;;;;6215952;23;20174;-75
2023/02/02 02:10:19;;;;;;;14.90;4.13;;;9.50;99.90;;;;;;6215945;23;20183;-76
2023/02/02 02:12:47;;;;;;;14.83;3.37;;;9.60;99.90;;;;;;6216369;23;20187;-76
2023/02/02 02:18:20;;;;;;;16.33;3.00;;;9.50;99.90;;;;;;6216081;23;20143;-76
2023/02/02 02:27:58;;;;;;;16.10;3.33;;;9.50;99.90;;;;;;6215700;23;20175;-76
2023/02/02 02:31:05;;;;;;;17.27;2.93;;;9.40;99.90;;;;;;6215711;23;20124;-76
2023/02/02 02:33:41;;;;;;;13.10;2.80;;;9.50;99.90;;;;;;6214451;23;20148;-76
2023/02/02 02:36:13;;;;;;;13.20;3.00;;;9.40;99.90;;;;;;6214086;23;20146;-76
2023/02/02 02:38:56;;;;;;;12.47;2.93;;;9.40;99.90;;;;;;6215828;23;20139;-76
2023/02/02 02:41:29;;;;;;;12.57;2.97;;;9.40;99.90;;;;;;6214058;23;20159;-76
2023/02/02 02:44:02;;;;;;;13.87;2.60;;;9.50;99.90;;;;;;6215787;23;20469;-76
2023/02/02 02:46:28;;;;;;;17.43;3.20;;;9.50;99.90;;;;;;6216029;23;20559;-76
2023/02/02 02:48:57;;;;;;;14.10;2.43;;;9.40;99.90;;;;;;6214320;23;20159;-77
2023/02/02 02:51:43;;;;;;;10.97;2.47;;;9.40;99.90;;;;;;6215421;23;20132;-76
2023/02/02 02:54:17;;;;;;;11.70;2.37;;;9.40;99.90;;;;;;6214417;23;20181;-77
2023/02/02 02:57:01;;;;;;;11.90;2.60;;;9.40;99.90;;;;;;6212870;23;20596;-76
2023/02/02 02:59:59;;;;;;;15.90;2.93;;;9.50;99.90;;;;;;6214499;23;20136;-76
2023/02/02 03:02:30;;;;;;;12.87;2.70;;;9.60;99.90;;;;;;6214193;23;20518;-76
2023/02/02 03:05:25;;;;;;;15.47;3.53;;;9.60;99.90;;;;;;6212076;23;20161;-76
2023/02/02 03:08:15;;;;;;;19.10;3.30;;;9.50;99.90;;;;;;6214175;23;20199;-77
2023/02/02 03:10:43;;;;;;;14.57;2.50;;;9.50;99.90;;;;;;6214121;23;20580;-76
2023/02/02 03:13:11;;;;;;;15.60;2.67;;;9.30;99.90;;;;;;6214988;23;20151;-77
2023/02/02 03:15:41;;;;;;;14.53;3.50;;;9.30;99.90;;;;;;6214463;23;20140;-76
2023/02/02 03:18:06;;;;;;;9.63;2.47;;;9.40;99.90;;;;;;6214026;23;20138;-77
2023/02/02 03:20:32;;;;;;;15.77;2.90;;;9.50;99.90;;;;;;6213612;23;20136;-76
2023/02/02 03:22:58;;;;;;;13.33;2.57;;;9.50;99.90;;;;;;6212403;23;20489;-76
2023/02/02 03:25:24;;;;;;;14.00;2.80;;;9.50;99.90;;;;;;6213949;23;20509;-76
2023/02/02 03:27:50;;;;;;;13.97;3.03;;;9.50;99.90;;;;;;6214432;23;20242;-77
2023/02/02 03:30:16;;;;;;;9.93;2.63;;;9.40;99.90;;;;;;6214357;23;20129;-76
2023/02/02 03:32:41;;;;;;;13.70;3.13;;;9.50;99.90;;;;;;6214252;23;20139;-76
2023/02/02 03:35:08;;;;;;;12.97;2.77;;;9.60;99.90;;;;;;6212495;23;20164;-76
2023/02/02 03:37:34;;;;;;;23.97;3.40;;;9.50;99.90;;;;;;6214273;23;20136;-76
2023/02/02 03:40:00;;;;;;;15.87;2.77;;;9.40;99.90;;;;;;6214041;23;20584;-76
2023/02/02 03:42:26;;;;;;;12.43;2.70;;;9.50;99.90;;;;;;6212325;23;20156;-76
2023/02/02 03:44:52;;;;;;;13.30;2.67;;;9.50;99.90;;;;;;6213454;23;20174;-76
2023/02/02 03:47:17;;;;;;;11.57;2.47;;;9.60;99.90;;;;;;6214042;23;20388;-75
2023/02/02 03:49:43;;;;;;;13.97;3.00;;;9.70;99.90;;;;;;6213551;23;20135;-76
2023/02/02 03:52:08;;;;;;;12.90;2.30;;;9.60;99.90;;;;;;6213679;23;20129;-76
2023/02/02 03:54:34;;;;;;;15.97;2.57;;;9.50;99.90;;;;;;6166744;23;1118187;-76
2023/02/02 03:57:00;;;;;;;11.93;2.83;;;9.50;99.90;;;;;;6214868;23;20136;-76
2023/02/02 03:59:25;;;;;;;12.50;2.60;;;9.30;99.90;;;;;;6214734;23;20215;-77
2023/02/02 04:01:51;;;;;;;14.53;3.20;;;9.50;99.90;;;;;;6213159;23;20235;-76
2023/02/02 04:04:16;;;;;;;16.17;3.20;;;9.60;99.90;;;;;;6214853;23;20583;-75
2023/02/02 04:06:43;;;;;;;16.13;3.10;;;9.50;99.90;;;;;;6215076;23;20189;-76
2023/02/02 04:09:09;;;;;;;12.27;2.37;;;9.50;99.90;;;;;;6215040;23;20573;-76
2023/02/02 04:11:35;;;;;;;13.30;3.03;;;9.50;99.90;;;;;;6215234;23;20144;-76
2023/02/02 04:14:01;;;;;;;12.30;2.73;;;9.50;99.90;;;;;;6213690;23;20604;-76
2023/02/02 04:16:26;;;;;;;11.30;2.33;;;9.50;99.90;;;;;;6214611;23;20175;-77
2023/02/02 04:18:52;;;;;;;12.43;2.70;;;9.50;99.90;;;;;;6215799;23;20143;-76
2023/02/02 04:21:18;;;;;;;16.23;3.10;;;9.50;99.90;;;;;;6216760;23;20187;-76
2023/02/02 04:23:43;;;;;;;13.07;2.60;;;9.60;99.90;;;;;;6215742;23;20231;-76
2023/02/02 04:26:09;;;;;;;11.13;2.30;;;9.60;99.90;;;;;;6216759;23;20131;-76
2023/02/02 04:28:36;;;;;;;11.90;2.70;;;9.40;99.90;;;;;;6215485;23;20555;-76
2023/02/02 04:31:03;;;;;;;15.60;2.67;;;9.40;99.90;;;;;;6216792;23;20154;-77
2023/02/02 04:33:29;;;;;;;8.60;2.13;;;9.30;99.90;;;;;;6216914;23;20163;-76
2023/02/02 04:35:55;;;;;;;10.67;2.40;;;9.50;99.90;;;;;;6217201;23;20562;-76
2023/02/02 04:38:20;;;;;;;11.33;2.53;;;9.40;99.90;;;;;;6215653;23;20152;-76
2023/02/02 04:40:47;;;;;;;14.70;2.80;;;9.40;99.90;;;;;;6216778;23;20158;-76
2023/02/02 04:43:13;;;;;;;16.33;3.27;;;9.50;99.90;;;;;;6215646;23;20543;-76
2023/02/02 04:45:41;;;;;;;9.20;2.50;;;9.40;99.90;;;;;;6217538;23;20450;-76
2023/02/02 04:48:07;;;;;;;11.17;2.67;;;9.40;99.90;;;;;;6215398;23;20617;-77
2023/02/02 04:50:33;;;;;;;14.47;2.40;;;9.50;99.90;;;;;;6216650;23;20128;-76
2023/02/02 04:52:59;;;;;;;10.83;2.70;;;9.50;99.90;;;;;;6216624;23;20132;-76
2023/02/02 04:55:24;;;;;;;10.27;2.40;;;9.60;99.90;;;;;;6216419;23;20148;-76
2023/02/02 04:57:51;;;;;;;14.20;2.90;;;9.60;99.90;;;;;;6216461;23;20151;-76
2023/02/02 05:00:17;;;;;;;14.33;3.13;;;9.50;99.90;;;;;;6217275;23;20147;-77
2023/02/02 05:02:44;;;;;;;14.07;3.03;;;9.50;99.90;;;;;;6216259;23;20136;-76
2023/02/02 05:05:12;;;;;;;12.87;2.83;;;9.30;99.90;;;;;;6217769;23;20511;-75
2023/02/02 05:07:39;;;;;;;15.73;3.20;;;9.40;99.90;;;;;;6217524;23;20581;-76
2023/02/02 05:10:07;;;;;;;12.23;2.63;;;9.40;99.90;;;;;;6215939;23;20139;-76
2023/02/02 05:12:33;;;;;;;14.17;2.43;;;9.30;99.90;;;;;;6217580;23;20515;-76
2023/02/02 05:15:02;;;;;;;20.53;3.43;;;9.20;99.90;;;;;;6217802;23;20211;-76
2023/02/02 05:17:28;;;;;;;10.93;2.90;;;9.30;99.90;;;;;;6217182;23;20141;-76
2023/02/02 05:19:53;;;;;;;13.93;2.13;;;9.20;99.90;;;;;;6216184;23;20562;-76
2023/02/02 05:22:19;;;;;;;12.47;2.63;;;9.20;99.90;;;;;;6217557;23;20138;-75
2023/02/02 05:24:45;;;;;;;13.03;2.67;;;9.10;99.90;;;;;;6217310;23;20140;-77
2023/02/02 05:27:11;;;;;;;13.03;3.03;;;9.30;99.90;;;;;;6217107;23;20536;-78
2023/02/02 05:29:37;;;;;;;14.97;2.83;;;9.20;99.90;;;;;;6217220;23;20175;-77
2023/02/02 05:32:03;;;;;;;7.60;2.53;;;9.20;99.90;;;;;;6216795;23;20136;-77
2023/02/02 05:34:30;;;;;;;14.63;2.77;;;9.20;99.90;;;;;;6217726;23;20133;-75
2023/02/02 05:36:55;;;;;;;14.07;3.40;;;9.30;99.90;;;;;;6217120;23;20136;-78
2023/02/02 05:39:21;;;;;;;9.30;2.27;;;9.20;99.90;;;;;;6217095;23;20195;-78
2023/02/02 05:41:46;;;;;;;12.13;2.50;;;9.20;99.90;;;;;;6214622;23;20561;-77
2023/02/02 05:44:13;;;;;;;11.93;2.60;;;9.10;99.90;;;;;;6217003;23;20170;-76
2023/02/02 05:46:40;;;;;;;18.37;2.97;;;8.90;99.90;;;;;;6215552;23;20489;-77
2023/02/02 05:49:05;;;;;;;11.60;2.60;;;9.00;99.90;;;;;;6217349;23;20127;-77
2023/02/02 05:51:41;;;;;;;11.60;2.53;;;9.10;99.90;;;;;;6216803;23;20132;-77
2023/02/02 05:54:06;;;;;;;11.20;2.97;;;9.00;99.90;;;;;;6217436;23;20159;-77
2023/02/02 05:56:32;;;;;;;15.50;2.70;;;9.10;99.90;;;;;;6216650;23;20523;-77
2023/02/02 05:58:58;;;;;;;16.13;3.40;;;9.10;99.90;;;;;;6214889;23;20224;-77
2023/02/02 06:01:25;;;;;;;16.03;3.20;;;9.20;99.90;;;;;;6216462;23;20202;-77
2023/02/02 06:03:51;;;;;;;14.13;2.80;;;9.20;99.90;;;;;;6215249;23;20151;-77
2023/02/02 06:06:18;;;;;;;14.83;3.00;;;9.10;99.90;;;;;;6216390;23;20203;-77
2023/02/02 06:08:45;;;;;;;10.77;2.57;;;9.10;99.90;;;;;;6217806;23;20246;-77
2023/02/02 06:11:16;;;;;;;21.00;3.43;;;9.00;99.90;;;;;;6216747;23;20304;-77
2023/02/02 06:13:44;;;;;;;13.63;2.70;;;8.90;99.90;;;;;;6218051;23;20183;-77
2023/02/02 06:16:12;;;;;;;13.87;2.87;;;8.80;99.90;;;;;;6216547;23;20143;-77
2023/02/02 06:18:39;;;;;;;14.90;3.03;;;8.70;99.90;;;;;;6216617;23;20179;-77
2023/02/02 06:21:12;;;;;;;18.27;2.97;;;8.70;99.90;;;;;;6218378;23;20157;-77
2023/02/02 06:23:42;;;;;;;13.13;2.93;;;8.80;99.90;;;;;;6216064;23;20198;-71
2023/02/02 06:26:07;;;;;;;15.13;3.00;;;8.60;99.90;;;;;;6214555;23;20172;-72
2023/02/02 06:28:33;;;;;;;13.77;3.90;;;8.60;99.90;;;;;;6215464;23;20178;-72
2023/02/02 06:31:06;;;;;;;17.00;3.07;;;8.70;99.90;;;;;;6216288;23;20136;-72
2023/02/02 06:33:32;;;;;;;10.90;2.80;;;8.80;99.90;;;;;;6215968;23;20131;-71
2023/02/02 06:36:04;;;;;;;15.83;3.50;;;8.70;99.90;;;;;;6214661;23;20150;-72
2023/02/02 06:38:31;;;;;;;16.10;2.80;;;8.70;99.90;;;;;;6214173;23;20147;-72
2023/02/02 06:41:01;;;;;;;16.50;3.47;;;8.70;99.90;;;;;;6214566;23;20209;-72
2023/02/02 06:43:28;;;;;;;12.37;2.43;;;8.60;99.90;;;;;;6214287;23;20186;-72
2023/02/02 06:45:58;;;;;;;12.23;2.43;;;8.70;99.90;;;;;;6216139;23;20136;-72
2023/02/02 06:48:25;;;;;;;11.33;2.17;;;8.70;99.90;;;;;;6214523;23;20504;-72
2023/02/02 06:50:50;;;;;;;13.53;3.03;;;8.70;99.90;;;;;;6215771;23;20188;-72
2023/02/02 06:53:21;;;;;;;11.80;2.87;;;8.70;99.90;;;;;;6215758;23;20240;-72
2023/02/02 06:55:59;;;;;;;11.47;2.67;;;8.90;99.90;;;;;;6214012;23;20605;-72
2023/02/02 06:58:26;;;;;;;11.10;2.40;;;8.80;99.90;;;;;;6213831;23;20150;-72
2023/02/02 07:01:12;;;;;;;13.60;2.90;;;8.90;99.90;;;;;;6214654;23;20155;-74
2023/02/02 07:03:40;;;;;;;12.83;2.73;;;8.70;99.90;;;;;;6214441;23;20162;-75
2023/02/02 07:06:21;;;;;;;14.07;2.93;;;8.60;99.90;;;;;;6216168;23;20214;-74
2023/02/02 07:08:50;;;;;;;10.40;2.57;;;8.60;99.90;;;;;;6214117;23;20166;-75
2023/02/02 07:11:16;;;;;;;12.23;2.60;;;8.60;99.90;;;;;;6215927;23;20183;-74
2023/02/02 07:13:47;;;;;;;13.70;2.80;;;8.70;99.90;;;;;;6214414;23;20140;-74
2023/02/02 07:16:17;;;;;;;10.00;2.43;;;8.70;99.90;;;;;;6216114;23;20128;-75
2023/02/02 07:18:43;;;;;;;10.63;2.83;;;8.80;99.90;;;;;;6214479;23;20588;-73
2023/02/02 07:21:20;;;;;;;12.27;2.03;;;8.80;99.90;;;;;;6215921;23;20128;-73
2023/02/02 07:23:47;;;;;;;14.00;2.53;;;9.00;99.90;;;;;;6213757;23;20181;-73
2023/02/02 07:26:14;;;;;;;13.80;3.00;;;8.80;99.90;;;;;;6213848;23;20467;-73
2023/02/02 07:28:42;;;;;;;17.83;2.87;;;8.80;99.90;;;;;;6215091;23;20182;-73
2023/02/02 07:31:16;;;;;;;19.23;3.07;;;8.80;99.90;;;;;;6213173;23;20147;-73
2023/02/02 07:33:43;;;;;;;14.83;3.10;;;8.90;99.90;;;;;;6212955;23;20148;-73
2023/02/02 07:36:10;;;;;;;7.67;1.97;;;8.90;99.90;;;;;;6214032;23;20169;-73
2023/02/02 07:38:36;;;;;;;12.20;2.60;;;8.90;99.90;;;;;;6215144;23;20132;-73
2023/02/02 07:41:01;;;;;;;14.67;2.40;;;9.00;99.90;;;;;;6213103;23;20152;-73
2023/02/02 07:43:27;;;;;;;11.80;2.87;;;8.90;99.90;;;;;;6214922;23;20181;-73
2023/02/02 07:45:54;;;;;;;13.37;2.80;;;9.00;99.90;;;;;;6215123;23;20458;-73
2023/02/02 07:48:20;;;;;;;14.60;2.50;;;8.90;99.90;;;;;;6215216;23;20242;-73
2023/02/02 07:50:45;;;;;;;14.47;3.27;;;8.90;99.90;;;;;;6214999;23;20160;-73
2023/02/02 07:53:11;;;;;;;13.37;2.43;;;9.00;99.90;;;;;;6213399;23;20167;-73
2023/02/02 07:55:36;;;;;;;14.40;2.80;;;9.00;99.90;;;;;;6214771;23;20565;-73
2023/02/02 07:58:03;;;;;;;18.43;2.93;;;9.00;99.90;;;;;;6213480;23;20144;-73
2023/02/02 08:00:29;;;;;;;12.30;2.47;;;8.90;99.90;;;;;;6214660;23;20509;-73
2023/02/02 08:02:54;;;;;;;10.67;2.40;;;9.00;99.90;;;;;;6214800;23;20185;-73
2023/02/02 08:05:21;;;;;;;14.27;2.73;;;9.10;99.90;;;;;;6214679;23;20474;-72
2023/02/02 08:07:48;;;;;;;11.40;2.63;;;9.10;99.90;;;;;;6213142;23;20182;-73
2023/02/02 08:10:14;;;;;;;9.53;2.33;;;9.10;99.90;;;;;;6214721;23;20152;-73
2023/02/02 08:12:40;;;;;;;10.83;2.80;;;9.20;99.90;;;;;;6214759;23;20194;-73
2023/02/02 08:15:06;;;;;;;12.60;2.27;;;9.20;99.90;;;;;;6214617;23;20541;-73
2023/02/02 08:17:32;;;;;;;9.00;2.47;;;9.10;99.90;;;;;;6214658;23;20136;-73
2023/02/02 08:19:59;;;;;;;17.00;4.00;;;9.20;99.90;;;;;;6213205;23;20213;-73
2023/02/02 08:22:24;;;;;;;9.97;2.67;;;9.10;99.90;;;;;;6214763;23;20135;-73
2023/02/02 08:24:50;;;;;;;7.73;2.20;;;9.10;99.90;;;;;;6212652;23;20151;-73
2023/02/02 08:27:15;;;;;;;11.07;2.17;;;9.30;99.90;;;;;;6214560;23;20239;-73
2023/02/02 08:29:42;;;;;;;13.07;2.47;;;9.30;99.90;;;;;;6214412;23;20143;-73
2023/02/02 08:32:08;;;;;;;10.53;2.73;;;9.30;99.90;;;;;;6214611;23;20127;-73
2023/02/02 08:34:35;;;;;;;9.90;2.00;;;9.30;99.90;;;;;;6213201;23;20139;-73
2023/02/02 08:37:02;;;;;;;6.27;2.03;;;9.40;99.90;;;;;;6213030;23;20541;-73
2023/02/02 08:39:27;;;;;;;9.70;2.33;;;9.20;99.90;;;;;;6212665;23;20146;-73
2023/02/02 08:41:56;;;;;;;10.17;2.70;;;9.30;99.90;;;;;;6214586;23;20270;-73
2023/02/02 08:44:23;;;;;;;11.90;2.00;;;9.30;99.90;;;;;;6214971;23;20214;-73
2023/02/02 08:46:48;;;;;;;8.53;2.50;;;9.40;99.90;;;;;;6212792;23;20180;-73
2023/02/02 08:49:14;;;;;;;9.73;2.50;;;9.40;99.90;;;;;;6213348;23;20155;-73
2023/02/02 08:51:40;;;;;;;6.97;1.83;;;9.50;99.90;;;;;;6213116;23;20150;-73
2023/02/02 08:54:06;;;;;;;14.03;2.30;;;9.50;99.90;;;;;;6212959;23;20673;-73
2023/02/02 08:56:35;;;;;;;18.93;2.70;;;9.60;99.90;;;;;;6214961;23;20170;-73
2023/02/02 08:59:04;;;;;;;11.20;2.27;;;9.40;99.90;;;;;;6213400;23;20144;-73
2023/02/02 09:01:32;;;;;;;15.73;2.53;;;9.50;99.90;;;;;;6214816;23;20605;-73
2023/02/02 09:04:06;;;;;;;8.27;2.07;;;9.40;99.90;;;;;;6214836;23;20475;-73
2023/02/02 09:06:36;;;;;;;11.07;2.37;;;9.30;99.90;;;;;;6215011;23;20210;-73
2023/02/02 09:09:06;;;;;;;10.43;2.73;;;9.40;99.90;;;;;;6215217;23;20152;-73
2023/02/02 09:11:32;;;;;;;9.97;2.40;;;9.50;99.90;;;;;;6215259;23;20179;-73
2023/02/02 09:14:00;;;;;;;9.17;2.03;;;9.50;99.90;;;;;;6216495;23;20200;-73
2023/02/02 09:16:26;;;;;;;9.97;2.30;;;9.60;99.90;;;;;;6217149;23;20128;-73
2023/02/02 09:18:52;;;;;;;10.33;2.43;;;9.60;99.90;;;;;;6216992;23;20143;-73
2023/02/02 09:21:20;;;;;;;8.23;2.37;;;9.70;99.90;;;;;;6216163;23;20471;-73
2023/02/02 09:23:48;;;;;;;11.83;2.57;;;9.80;99.90;;;;;;6216885;23;20128;-71
2023/02/02 09:26:24;;;;;;;11.60;2.40;;;9.80;99.90;;;;;;6215234;23;20148;-73
2023/02/02 09:29:03;;;;;;;12.80;2.70;;;9.90;99.90;;;;;;6215644;23;20506;-73
2023/02/02 09:31:32;;;;;;;11.23;2.30;;;9.90;99.90;;;;;;6216516;23;20125;-73
2023/02/02 09:34:02;;;;;;;13.07;3.03;;;10.00;99.90;;;;;;6216898;23;20137;-72
2023/02/02 09:36:28;;;;;;;9.50;2.80;;;10.00;99.90;;;;;;6214794;23;20144;-72
2023/02/02 09:38:54;;;;;;;9.70;2.23;;;10.00;99.90;;;;;;6214802;23;20155;-73
2023/02/02 09:41:38;;;;;;;12.27;2.20;;;10.10;99.90;;;;;;6216217;23;20594;-72
2023/02/02 09:44:51;;;;;;;11.17;2.50;;;10.20;99.90;;;;;;6215039;23;20182;-72
2023/02/02 09:47:28;;;;;;;11.10;2.33;;;10.10;99.90;;;;;;6153432;23;20599;-72
2023/02/02 09:50:16;;;;;;;8.60;2.47;;;10.10;99.90;;;;;;6208360;23;20156;-72
2023/02/02 09:52:48;;;;;;;9.33;2.10;;;10.10;99.90;;;;;;6213896;23;20208;-73
2023/02/02 09:55:25;;;;;;;8.67;2.83;;;10.10;99.90;;;;;;6214627;23;20156;-72
2023/02/02 09:57:56;;;;;;;15.10;2.40;;;10.10;99.90;;;;;;6216055;23;20598;-72
2023/02/02 10:00:36;;;;;;;7.93;2.03;;;10.10;99.90;;;;;;6216228;23;20562;-73
2023/02/02 10:03:18;;;;;;;10.43;2.37;;;10.10;99.90;;;;;;6215850;23;20219;-72
2023/02/02 10:06:04;;;;;;;11.87;2.27;;;10.20;99.90;;;;;;6215791;23;20199;-72
2023/02/02 10:08:37;;;;;;;12.23;2.50;;;10.20;99.90;;;;;;6214325;23;20176;-74
2023/02/02 10:11:37;;;;;;;12.43;1.90;;;10.20;99.90;;;;;;6214630;23;20144;-72
2023/02/02 10:14:12;;;;;;;8.20;2.47;;;10.20;99.90;;;;;;6213670;23;20155;-72
2023/02/02 10:16:39;;;;;;;7.10;1.87;;;10.20;99.90;;;;;;6216172;23;20127;-73
2023/02/02 10:19:10;;;;;;;12.93;2.60;;;10.20;99.90;;;;;;6214491;23;20199;-72
2023/02/02 10:22:23;;;;;;;10.13;2.10;;;10.30;99.90;;;;;;6214129;23;20150;-72
2023/02/02 10:24:50;;;;;;;9.67;2.27;;;10.20;99.90;;;;;;6181493;23;20652;-73
2023/02/02 10:27:28;;;;;;;9.90;2.30;;;10.30;99.90;;;;;;6214074;23;20179;-72
2023/02/02 10:30:02;;;;;;;11.57;1.70;;;10.30;99.90;;;;;;6215933;23;20566;-72
2023/02/02 10:32:33;;;;;;;6.10;2.40;;;10.50;99.90;;;;;;6214007;23;20159;-72
2023/02/02 10:35:02;;;;;;;8.53;2.23;;;10.70;99.90;;;;;;6214122;23;20204;-73
2023/02/02 10:38:02;;;;;;;10.50;2.13;;;10.70;99.90;;;;;;6215824;23;20136;-72
2023/02/02 10:40:56;;;;;;;7.03;2.30;;;10.80;99.90;;;;;;6215760;23;20648;-72
2023/02/02 10:43:51;;;;;;;10.53;2.10;;;10.80;99.90;;;;;;6213966;23;20164;-73
2023/02/02 10:46:27;;;;;;;9.20;2.07;;;10.80;99.90;;;;;;6214741;23;20144;-72
2023/02/02 10:49:26;;;;;;;10.70;2.53;;;10.90;99.90;;;;;;6215309;23;20589;-73
2023/02/02 10:52:12;;;;;;;8.27;2.43;;;10.90;99.90;;;;;;6214052;23;20542;-73
2023/02/02 10:54:53;;;;;;;9.27;2.53;;;10.90;99.90;;;;;;6213850;23;20164;-73
2023/02/02 10:57:31;;;;;;;7.17;2.03;;;11.00;99.90;;;;;;6214273;23;20573;-73
2023/02/02 11:00:05;;;;;;;8.23;2.03;;;11.00;99.90;;;;;;6215548;23;20136;-72
2023/02/02 11:02:31;;;;;;;8.33;2.00;;;11.10;99.90;;;;;;6216209;23;20474;-72
2023/02/02 11:07:41;;;;;;;8.70;2.20;;;11.20;99.90;;;;;;6215572;23;20179;-73
2023/02/02 11:10:08;;;;;;;11.80;1.93;;;11.20;99.90;;;;;;6213716;23;20575;-73
2023/02/02 11:12:40;;;;;;;12.37;2.40;;;11.20;99.90;;;;;;6214604;23;20145;-73
2023/02/02 11:15:21;;;;;;;10.50;2.27;;;11.10;99.90;;;;;;6214039;23;20180;-72
2023/02/02 11:17:47;;;;;;;9.03;1.90;;;11.20;99.90;;;;;;6213967;23;20156;-72
2023/02/02 11:20:32;;;;;;;11.20;2.20;;;11.50;99.90;;;;;;6215372;23;20132;-74
2023/02/02 11:23:05;;;;;;;10.37;2.37;;;11.60;99.90;;;;;;6213869;23;20159;-73
2023/02/02 11:25:36;;;;;;;8.47;2.03;;;11.60;99.90;;;;;;6213660;23;20239;-73
2023/02/02 11:28:27;;;;;;;6.20;1.90;;;11.70;99.90;;;;;;6213468;23;20561;-72
2023/02/02 11:30:53;;;;;;;9.63;1.93;;;11.60;99.90;;;;;;6215381;23;20136;-73
2023/02/02 11:33:31;;;;;;;14.57;2.40;;;11.30;99.90;;;;;;6213274;23;20187;-73
2023/02/02 11:36:03;;;;;;;10.23;2.37;;;11.30;99.90;;;;;;6213642;23;20145;-73
2023/02/02 11:38:30;;;;;;;5.20;2.13;;;11.40;99.90;;;;;;6213591;23;20428;-73
2023/02/02 11:41:09;;;;;;;8.53;1.83;;;11.50;99.90;;;;;;6214988;23;20219;-72
2023/02/02 11:43:40;;;;;;;7.50;2.00;;;11.40;99.90;;;;;;6215041;23;20187;-73
2023/02/02 11:46:18;;;;;;;9.77;2.63;;;11.00;99.90;;;;;;6215020;23;20128;-73
2023/02/02 11:49:08;;;;;;;7.83;2.27;;;11.10;99.90;;;;;;6214600;23;20238;-72
2023/02/02 11:51:37;;;;;;;8.63;2.10;;;11.20;99.90;;;;;;6213590;23;20571;-74
2023/02/02 11:54:36;;;;;;;7.27;2.00;;;11.10;99.90;;;;;;6214980;23;20159;-73
2023/02/02 11:57:08;;;;;;;17.87;4.73;;;11.20;99.90;;;;;;6207822;23;20476;-74
2023/02/02 11:59:41;;;;;;;7.07;1.80;;;11.40;99.90;;;;;;6214829;23;20144;-72
2023/02/02 12:02:28;;;;;;;8.60;2.20;;;11.50;99.90;;;;;;6213516;23;20656;-74
2023/02/02 12:05:19;;;;;;;11.77;2.43;;;11.50;99.90;;;;;;6213439;23;20151;-73
2023/02/02 12:07:47;;;;;;;10.37;2.10;;;11.50;99.90;;;;;;6214980;23;20187;-72
2023/02/02 12:10:18;;;;;;;14.73;2.43;;;11.60;99.90;;;;;;6214754;23;20132;-73
2023/02/02 12:13:07;;;;;;;10.83;2.03;;;11.80;99.90;;;;;;6213566;23;20148;-74
2023/02/02 12:15:51;;;;;;;6.60;2.03;;;12.10;99.90;;;;;;6222595;23;20206;-74
2023/02/02 12:18:37;;;;;;;8.63;1.87;;;12.20;99.90;;;;;;6214919;23;20564;-73
2023/02/02 12:21:05;;;;;;;10.00;2.27;;;12.20;99.90;;;;;;6214602;23;20138;-74
2023/02/02 12:23:50;;;;;;;10.40;1.80;;;12.40;99.90;;;;;;6214840;23;20146;-74
2023/02/02 12:26:31;;;;;;;4.97;1.80;;;13.00;99.90;;;;;;6214817;23;20134;-72
2023/02/02 12:29:02;;;;;;;8.37;1.90;;;13.30;99.90;;;;;;6213018;23;20236;-73
2023/02/02 12:31:43;;;;;;;9.77;2.13;;;13.10;99.90;;;;;;6212888;23;20197;-74
2023/02/02 12:34:31;;;;;;;9.60;1.60;;;12.80;99.90;;;;;;6213506;23;20158;-72
2023/02/02 12:37:28;;;;;;;10.50;1.67;;;12.90;99.90;;;;;;6214075;23;20155;-74
2023/02/02 12:39:59;;;;;;;10.90;2.60;;;12.80;99.90;;;;;;6215146;23;20159;-72
2023/02/02 12:42:34;;;;;;;8.47;1.63;;;12.80;99.90;;;;;;6217340;23;20131;-73
2023/02/02 12:45:35;;;;;;;5.73;1.80;;;12.90;99.90;;;;;;6216408;23;20135;-73
2023/02/02 12:48:31;;;;;;;8.80;1.60;;;12.70;99.90;;;;;;6216653;23;20236;-73
2023/02/02 12:51:30;;;;;;;11.50;2.10;;;12.20;99.90;;;;;;6215092;23;20597;-72
2023/02/02 12:54:14;;;;;;;4.27;1.53;;;12.10;99.90;;;;;;6193038;23;20165;-73
2023/02/02 12:56:50;;;;;;;7.07;2.23;;;12.30;99.90;;;;;;6216743;23;20505;-73
2023/02/02 12:59:45;;;;;;;9.20;2.17;;;12.10;99.90;;;;;;6216276;23;20157;-73
2023/02/02 13:02:22;;;;;;;9.40;1.83;;;12.00;99.90;;;;;;6214647;23;20247;-73
2023/02/02 13:04:56;;;;;;;7.53;1.77;;;12.10;99.90;;;;;;6216492;23;20136;-73
2023/02/02 13:07:46;;;;;;;8.43;1.90;;;11.90;99.90;;;;;;6214521;23;20260;-73
2023/02/02 13:10:12;;;;;;;8.37;1.90;;;11.90;99.90;;;;;;6217146;23;20145;-73
2023/02/02 13:13:07;;;;;;;4.83;1.50;;;11.90;99.90;;;;;;6215016;23;20144;-73
2023/02/02 13:15:36;;;;;;;7.17;1.57;;;11.80;99.90;;;;;;6207903;23;20152;-73
2023/02/02 13:18:18;;;;;;;13.47;2.37;;;11.80;99.90;;;;;;6215181;23;20152;-72
2023/02/02 13:20:54;;;;;;;7.80;2.13;;;11.70;99.90;;;;;;6214944;23;20648;-72